sensor_id;sensor_type;location;lat;lon;timestamp;P1;durP1;ratioP1;P2;durP2;ratioP2
51949;SDS011;37974;53.218;6.640;2023-04-19T00:00:18;10.20;;;6.88;;
51949;SDS011;37974;53.218;6.640;2023-04-19T00:02:45;8.82;;;6.32;;
51949;SDS011;37974;53.218;6.640;2023-04-19T00:05:13;12.13;;;6.82;;
51949;SDS011;37974;53.218;6.640;2023-04-19T00:07:39;11.10;;;6.80;;
51949;SDS011;37974;53.218;6.640;2023-04-19T00:10:05;11.93;;;6.75;;
51949;SDS011;37974;53.218;6.640;2023-04-19T00:12:31;12.35;;;6.93;;
51949;SDS011;37974;53.218;6.640;2023-04-19T00:14:57;10.10;;;6.70;;
51949;SDS011;37974;53.218;6.640;2023-04-19T00:17:23;9.75;;;6.72;;
51949;SDS011;37974;53.218;6.640;2023-04-19T00:19:48;11.00;;;6.93;;
51949;SDS011;37974;53.218;6.640;2023-04-19T00:22:15;15.48;;;8.15;;
51949;SDS011;37974;53.218;6.640;2023-04-19T00:24:41;11.82;;;7.18;;
51949;SDS011;37974;53.218;6.640;2023-04-19T00:27:06;10.18;;;7.18;;
51949;SDS011;37974;53.218;6.640;2023-04-19T00:29:32;10.30;;;7.45;;
51949;SDS011;37974;53.218;6.640;2023-04-19T00:31:58;11.73;;;8.45;;
51949;SDS011;37974;53.218;6.640;2023-04-19T00:34:24;13.75;;;8.15;;
51949;SDS011;37974;53.218;6.640;2023-04-19T00:36:50;12.52;;;7.75;;
51949;SDS011;37974;53.218;6.640;2023-04-19T00:39:15;13.25;;;7.90;;
51949;SDS011;37974;53.218;6.640;2023-04-19T00:41:41;12.18;;;8.15;;
51949;SDS011;37974;53.218;6.640;2023-04-19T00:44:07;13.35;;;7.70;;
51949;SDS011;37974;53.218;6.640;2023-04-19T00:46:32;14.18;;;8.93;;
51949;SDS011;37974;53.218;6.640;2023-04-19T00:49:00;11.85;;;7.97;;
51949;SDS011;37974;53.218;6.640;2023-04-19T00:51:26;13.40;;;8.40;;
51949;SDS011;37974;53.218;6.640;2023-04-19T00:53:52;12.13;;;8.10;;
51949;SDS011;37974;53.218;6.640;2023-04-19T00:56:18;13.07;;;9.15;;
51949;SDS011;37974;53.218;6.640;2023-04-19T00:58:46;13.02;;;8.88;;
51949;SDS011;37974;53.218;6.640;2023-04-19T01:01:12;13.18;;;9.25;;
51949;SDS011;37974;53.218;6.640;2023-04-19T01:03:38;15.75;;;9.50;;
51949;SDS011;37974;53.218;6.640;2023-04-19T01:06:04;13.45;;;9.10;;
51949;SDS011;37974;53.218;6.640;2023-04-19T01:08:30;14.57;;;9.00;;
51949;SDS011;37974;53.218;6.640;2023-04-19T01:10:56;14.45;;;9.48;;
51949;SDS011;37974;53.218;6.640;2023-04-19T01:13:21;14.95;;;10.15;;
51949;SDS011;37974;53.218;6.640;2023-04-19T01:15:47;14.30;;;9.30;;
51949;SDS011;37974;53.218;6.640;2023-04-19T01:18:13;14.80;;;9.68;;
51949;SDS011;37974;53.218;6.640;2023-04-19T01:20:39;20.05;;;10.10;;
51949;SDS011;37974;53.218;6.640;2023-04-19T01:23:04;16.05;;;10.55;;
51949;SDS011;37974;53.218;6.640;2023-04-19T01:25:30;17.20;;;10.43;;
51949;SDS011;37974;53.218;6.640;2023-04-19T01:27:56;16.27;;;10.93;;
51949;SDS011;37974;53.218;6.640;2023-04-19T01:30:21;20.05;;;10.60;;
51949;SDS011;37974;53.218;6.640;2023-04-19T01:32:47;16.75;;;11.02;;
51949;SDS011;37974;53.218;6.640;2023-04-19T01:35:13;14.80;;;10.80;;
51949;SDS011;37974;53.218;6.640;2023-04-19T01:37:38;15.45;;;11.00;;
51949;SDS011;37974;53.218;6.640;2023-04-19T01:40:04;15.00;;;9.95;;
51949;SDS011;37974;53.218;6.640;2023-04-19T01:42:30;15.65;;;10.25;;
51949;SDS011;37974;53.218;6.640;2023-04-19T01:44:56;15.93;;;11.00;;
51949;SDS011;37974;53.218;6.640;2023-04-19T01:47:22;17.15;;;10.98;;
51949;SDS011;37974;53.218;6.640;2023-04-19T01:49:49;14.82;;;9.38;;
51949;SDS011;37974;53.218;6.640;2023-04-19T01:52:14;12.68;;;8.68;;
51949;SDS011;37974;53.218;6.640;2023-04-19T01:54:40;15.10;;;8.55;;
51949;SDS011;37974;53.218;6.640;2023-04-19T01:57:06;14.35;;;8.50;;
51949;SDS011;37974;53.218;6.640;2023-04-19T01:59:31;15.15;;;8.68;;
51949;SDS011;37974;53.218;6.640;2023-04-19T02:01:57;12.85;;;8.85;;
51949;SDS011;37974;53.218;6.640;2023-04-19T02:04:22;15.65;;;8.40;;
51949;SDS011;37974;53.218;6.640;2023-04-19T02:06:48;14.85;;;8.15;;
51949;SDS011;37974;53.218;6.640;2023-04-19T02:09:14;11.00;;;8.15;;
51949;SDS011;37974;53.218;6.640;2023-04-19T02:11:40;11.93;;;7.68;;
51949;SDS011;37974;53.218;6.640;2023-04-19T02:14:05;12.73;;;8.27;;
51949;SDS011;37974;53.218;6.640;2023-04-19T02:16:31;10.75;;;7.25;;
51949;SDS011;37974;53.218;6.640;2023-04-19T02:18:57;13.10;;;7.88;;
51949;SDS011;37974;53.218;6.640;2023-04-19T02:21:22;13.75;;;7.13;;
51949;SDS011;37974;53.218;6.640;2023-04-19T02:23:48;10.45;;;6.45;;
51949;SDS011;37974;53.218;6.640;2023-04-19T02:26:14;16.27;;;7.03;;
51949;SDS011;37974;53.218;6.640;2023-04-19T02:28:39;15.10;;;7.18;;
51949;SDS011;37974;53.218;6.640;2023-04-19T02:31:08;10.23;;;6.18;;
51949;SDS011;37974;53.218;6.640;2023-04-19T02:33:34;11.00;;;6.07;;
51949;SDS011;37974;53.218;6.640;2023-04-19T02:36:00;21.52;;;6.50;;
51949;SDS011;37974;53.218;6.640;2023-04-19T02:38:26;20.20;;;7.35;;
51949;SDS011;37974;53.218;6.640;2023-04-19T02:40:51;11.95;;;6.93;;
51949;SDS011;37974;53.218;6.640;2023-04-19T02:43:17;14.07;;;5.95;;
51949;SDS011;37974;53.218;6.640;2023-04-19T02:45:43;11.18;;;6.40;;
51949;SDS011;37974;53.218;6.640;2023-04-19T02:48:08;10.95;;;6.63;;
51949;SDS011;37974;53.218;6.640;2023-04-19T02:50:36;9.43;;;6.15;;
51949;SDS011;37974;53.218;6.640;2023-04-19T02:53:03;11.77;;;7.05;;
51949;SDS011;37974;53.218;6.640;2023-04-19T02:55:29;11.93;;;6.70;;
51949;SDS011;37974;53.218;6.640;2023-04-19T02:57:55;11.45;;;7.68;;
51949;SDS011;37974;53.218;6.640;2023-04-19T03:00:20;14.23;;;7.00;;
51949;SDS011;37974;53.218;6.640;2023-04-19T03:02:46;11.20;;;6.85;;
51949;SDS011;37974;53.218;6.640;2023-04-19T03:05:12;13.52;;;7.07;;
51949;SDS011;37974;53.218;6.640;2023-04-19T03:07:37;10.38;;;6.80;;
51949;SDS011;37974;53.218;6.640;2023-04-19T03:10:03;11.27;;;6.15;;
51949;SDS011;37974;53.218;6.640;2023-04-19T03:12:29;12.18;;;6.47;;
51949;SDS011;37974;53.218;6.640;2023-04-19T03:14:55;14.07;;;6.03;;
51949;SDS011;37974;53.218;6.640;2023-04-19T03:17:20;9.63;;;5.80;;
51949;SDS011;37974;53.218;6.640;2023-04-19T03:19:46;12.60;;;6.40;;
51949;SDS011;37974;53.218;6.640;2023-04-19T03:22:12;12.35;;;6.53;;
51949;SDS011;37974;53.218;6.640;2023-04-19T03:24:37;11.45;;;6.80;;
51949;SDS011;37974;53.218;6.640;2023-04-19T03:27:03;14.70;;;7.22;;
51949;SDS011;37974;53.218;6.640;2023-04-19T03:29:29;12.18;;;6.30;;
51949;SDS011;37974;53.218;6.640;2023-04-19T03:31:54;13.10;;;6.45;;
51949;SDS011;37974;53.218;6.640;2023-04-19T03:34:20;11.65;;;6.28;;
51949;SDS011;37974;53.218;6.640;2023-04-19T03:36:46;9.93;;;5.95;;
51949;SDS011;37974;53.218;6.640;2023-04-19T03:39:11;14.68;;;6.93;;
51949;SDS011;37974;53.218;6.640;2023-04-19T03:41:38;10.80;;;6.22;;
51949;SDS011;37974;53.218;6.640;2023-04-19T03:44:04;9.73;;;5.90;;
51949;SDS011;37974;53.218;6.640;2023-04-19T03:46:30;14.02;;;6.57;;
51949;SDS011;37974;53.218;6.640;2023-04-19T03:48:56;10.63;;;5.60;;
51949;SDS011;37974;53.218;6.640;2023-04-19T03:51:22;10.68;;;5.80;;
51949;SDS011;37974;53.218;6.640;2023-04-19T03:53:47;9.05;;;5.50;;
51949;SDS011;37974;53.218;6.640;2023-04-19T03:56:13;10.60;;;5.82;;
51949;SDS011;37974;53.218;6.640;2023-04-19T03:58:39;8.88;;;5.70;;
51949;SDS011;37974;53.218;6.640;2023-04-19T04:01:04;10.65;;;5.57;;
51949;SDS011;37974;53.218;6.640;2023-04-19T04:03:32;12.43;;;5.90;;
51949;SDS011;37974;53.218;6.640;2023-04-19T04:05:58;8.85;;;5.15;;
51949;SDS011;37974;53.218;6.640;2023-04-19T04:08:24;10.10;;;5.43;;
51949;SDS011;37974;53.218;6.640;2023-04-19T04:10:50;12.02;;;5.70;;
51949;SDS011;37974;53.218;6.640;2023-04-19T04:13:16;9.50;;;5.28;;
51949;SDS011;37974;53.218;6.640;2023-04-19T04:15:42;10.25;;;5.20;;
51949;SDS011;37974;53.218;6.640;2023-04-19T04:18:08;9.85;;;5.40;;
51949;SDS011;37974;53.218;6.640;2023-04-19T04:20:33;10.07;;;5.30;;
51949;SDS011;37974;53.218;6.640;2023-04-19T04:23:00;12.98;;;5.65;;
51949;SDS011;37974;53.218;6.640;2023-04-19T04:25:26;11.00;;;5.10;;
51949;SDS011;37974;53.218;6.640;2023-04-19T04:27:53;9.68;;;4.97;;
51949;SDS011;37974;53.218;6.640;2023-04-19T04:30:18;11.85;;;5.40;;
51949;SDS011;37974;53.218;6.640;2023-04-19T04:32:47;8.75;;;5.07;;
51949;SDS011;37974;53.218;6.640;2023-04-19T04:35:15;7.50;;;4.90;;
51949;SDS011;37974;53.218;6.640;2023-04-19T04:37:41;9.48;;;4.68;;
51949;SDS011;37974;53.218;6.640;2023-04-19T04:40:07;11.05;;;4.88;;
51949;SDS011;37974;53.218;6.640;2023-04-19T04:42:33;11.07;;;5.05;;
51949;SDS011;37974;53.218;6.640;2023-04-19T04:44:59;8.10;;;4.68;;
51949;SDS011;37974;53.218;6.640;2023-04-19T04:47:29;9.55;;;4.40;;
51949;SDS011;37974;53.218;6.640;2023-04-19T04:49:57;6.72;;;4.15;;
51949;SDS011;37974;53.218;6.640;2023-04-19T04:52:23;10.77;;;4.55;;
51949;SDS011;37974;53.218;6.640;2023-04-19T04:54:49;8.35;;;4.57;;
51949;SDS011;37974;53.218;6.640;2023-04-19T04:57:14;8.35;;;4.45;;
51949;SDS011;37974;53.218;6.640;2023-04-19T04:59:40;8.27;;;4.28;;
51949;SDS011;37974;53.218;6.640;2023-04-19T05:02:06;10.73;;;4.40;;
51949;SDS011;37974;53.218;6.640;2023-04-19T05:04:32;12.52;;;3.92;;
51949;SDS011;37974;53.218;6.640;2023-04-19T05:06:57;7.85;;;4.75;;
51949;SDS011;37974;53.218;6.640;2023-04-19T05:09:23;9.43;;;4.10;;
51949;SDS011;37974;53.218;6.640;2023-04-19T05:11:49;7.25;;;4.05;;
51949;SDS011;37974;53.218;6.640;2023-04-19T05:14:14;9.90;;;3.95;;
51949;SDS011;37974;53.218;6.640;2023-04-19T05:16:40;13.23;;;4.30;;
51949;SDS011;37974;53.218;6.640;2023-04-19T05:19:06;6.97;;;3.85;;
51949;SDS011;37974;53.218;6.640;2023-04-19T05:21:32;8.23;;;4.05;;
51949;SDS011;37974;53.218;6.640;2023-04-19T05:23:58;8.48;;;3.97;;
51949;SDS011;37974;53.218;6.640;2023-04-19T05:26:24;11.63;;;4.10;;
51949;SDS011;37974;53.218;6.640;2023-04-19T05:28:50;6.63;;;3.78;;
51949;SDS011;37974;53.218;6.640;2023-04-19T05:31:15;10.02;;;4.30;;
51949;SDS011;37974;53.218;6.640;2023-04-19T05:33:42;9.77;;;3.75;;
51949;SDS011;37974;53.218;6.640;2023-04-19T05:36:08;11.25;;;3.90;;
51949;SDS011;37974;53.218;6.640;2023-04-19T05:38:33;7.15;;;3.63;;
51949;SDS011;37974;53.218;6.640;2023-04-19T05:41:00;7.90;;;4.03;;
51949;SDS011;37974;53.218;6.640;2023-04-19T05:43:26;11.93;;;4.10;;
51949;SDS011;37974;53.218;6.640;2023-04-19T05:45:51;8.43;;;3.88;;
51949;SDS011;37974;53.218;6.640;2023-04-19T05:48:17;6.70;;;3.88;;
51949;SDS011;37974;53.218;6.640;2023-04-19T05:50:43;10.05;;;3.80;;
51949;SDS011;37974;53.218;6.640;2023-04-19T05:53:08;5.97;;;3.53;;
51949;SDS011;37974;53.218;6.640;2023-04-19T05:55:34;10.05;;;3.65;;
51949;SDS011;37974;53.218;6.640;2023-04-19T05:58:00;7.22;;;3.50;;
51949;SDS011;37974;53.218;6.640;2023-04-19T06:00:26;7.38;;;3.85;;
51949;SDS011;37974;53.218;6.640;2023-04-19T06:02:52;5.75;;;3.20;;
51949;SDS011;37974;53.218;6.640;2023-04-19T06:05:18;5.63;;;3.10;;
51949;SDS011;37974;53.218;6.640;2023-04-19T06:07:43;7.32;;;3.30;;
51949;SDS011;37974;53.218;6.640;2023-04-19T06:10:09;6.57;;;3.35;;
51949;SDS011;37974;53.218;6.640;2023-04-19T06:12:35;16.08;;;3.47;;
51949;SDS011;37974;53.218;6.640;2023-04-19T06:15:01;8.23;;;3.45;;
51949;SDS011;37974;53.218;6.640;2023-04-19T06:17:26;9.00;;;3.03;;
51949;SDS011;37974;53.218;6.640;2023-04-19T06:19:53;7.60;;;3.22;;
51949;SDS011;37974;53.218;6.640;2023-04-19T06:22:19;7.10;;;2.90;;
51949;SDS011;37974;53.218;6.640;2023-04-19T06:24:45;9.02;;;3.15;;
51949;SDS011;37974;53.218;6.640;2023-04-19T06:27:11;37.08;;;5.13;;
51949;SDS011;37974;53.218;6.640;2023-04-19T06:29:38;4.88;;;2.70;;
51949;SDS011;37974;53.218;6.640;2023-04-19T06:32:03;5.25;;;2.58;;
51949;SDS011;37974;53.218;6.640;2023-04-19T06:34:29;4.97;;;3.13;;
51949;SDS011;37974;53.218;6.640;2023-04-19T06:36:55;8.60;;;2.70;;
51949;SDS011;37974;53.218;6.640;2023-04-19T06:39:20;9.57;;;3.10;;
51949;SDS011;37974;53.218;6.640;2023-04-19T06:41:46;10.85;;;2.60;;
51949;SDS011;37974;53.218;6.640;2023-04-19T06:44:12;9.65;;;2.75;;
51949;SDS011;37974;53.218;6.640;2023-04-19T06:46:38;5.53;;;2.50;;
51949;SDS011;37974;53.218;6.640;2023-04-19T06:49:04;3.90;;;2.00;;
51949;SDS011;37974;53.218;6.640;2023-04-19T06:51:30;7.57;;;2.78;;
51949;SDS011;37974;53.218;6.640;2023-04-19T06:53:57;6.57;;;2.88;;
51949;SDS011;37974;53.218;6.640;2023-04-19T06:56:44;9.90;;;2.83;;
51949;SDS011;37974;53.218;6.640;2023-04-19T06:59:11;11.23;;;2.78;;
51949;SDS011;37974;53.218;6.640;2023-04-19T07:01:40;6.32;;;2.30;;
51949;SDS011;37974;53.218;6.640;2023-04-19T07:04:06;4.75;;;2.10;;
51949;SDS011;37974;53.218;6.640;2023-04-19T07:06:33;5.53;;;2.70;;
51949;SDS011;37974;53.218;6.640;2023-04-19T07:08:59;5.47;;;1.95;;
51949;SDS011;37974;53.218;6.640;2023-04-19T07:11:25;5.20;;;2.20;;
51949;SDS011;37974;53.218;6.640;2023-04-19T07:13:51;6.10;;;1.90;;
51949;SDS011;37974;53.218;6.640;2023-04-19T07:16:17;6.15;;;1.90;;
51949;SDS011;37974;53.218;6.640;2023-04-19T07:18:42;7.05;;;2.08;;
51949;SDS011;37974;53.218;6.640;2023-04-19T07:21:09;5.63;;;1.80;;
51949;SDS011;37974;53.218;6.640;2023-04-19T07:23:34;5.22;;;1.75;;
51949;SDS011;37974;53.218;6.640;2023-04-19T07:26:00;5.10;;;1.45;;
51949;SDS011;37974;53.218;6.640;2023-04-19T07:28:27;11.23;;;2.28;;
51949;SDS011;37974;53.218;6.640;2023-04-19T07:30:53;9.93;;;2.17;;
51949;SDS011;37974;53.218;6.640;2023-04-19T07:33:19;5.32;;;1.73;;
51949;SDS011;37974;53.218;6.640;2023-04-19T07:35:46;8.00;;;1.75;;
51949;SDS011;37974;53.218;6.640;2023-04-19T07:38:11;4.45;;;1.65;;
51949;SDS011;37974;53.218;6.640;2023-04-19T07:40:37;5.47;;;1.67;;
51949;SDS011;37974;53.218;6.640;2023-04-19T07:43:03;7.82;;;1.80;;
51949;SDS011;37974;53.218;6.640;2023-04-19T07:45:29;7.28;;;1.73;;
51949;SDS011;37974;53.218;6.640;2023-04-19T07:47:55;3.92;;;1.60;;
51949;SDS011;37974;53.218;6.640;2023-04-19T07:50:21;4.32;;;1.80;;
51949;SDS011;37974;53.218;6.640;2023-04-19T07:52:48;3.03;;;1.40;;
51949;SDS011;37974;53.218;6.640;2023-04-19T07:55:14;5.72;;;1.73;;
51949;SDS011;37974;53.218;6.640;2023-04-19T07:57:40;3.47;;;1.70;;
51949;SDS011;37974;53.218;6.640;2023-04-19T08:00:10;10.57;;;2.17;;
51949;SDS011;37974;53.218;6.640;2023-04-19T08:02:37;7.80;;;1.63;;
51949;SDS011;37974;53.218;6.640;2023-04-19T08:05:02;9.15;;;1.58;;
51949;SDS011;37974;53.218;6.640;2023-04-19T08:07:28;6.45;;;1.45;;
51949;SDS011;37974;53.218;6.640;2023-04-19T08:09:54;8.48;;;1.65;;
51949;SDS011;37974;53.218;6.640;2023-04-19T08:12:20;10.73;;;1.83;;
51949;SDS011;37974;53.218;6.640;2023-04-19T08:14:46;4.50;;;1.27;;
51949;SDS011;37974;53.218;6.640;2023-04-19T08:17:13;6.93;;;1.52;;
51949;SDS011;37974;53.218;6.640;2023-04-19T08:19:40;2.67;;;1.50;;
51949;SDS011;37974;53.218;6.640;2023-04-19T08:22:06;5.97;;;1.38;;
51949;SDS011;37974;53.218;6.640;2023-04-19T08:24:31;4.38;;;1.40;;
51949;SDS011;37974;53.218;6.640;2023-04-19T08:26:57;14.82;;;2.03;;
51949;SDS011;37974;53.218;6.640;2023-04-19T08:29:23;23.63;;;2.67;;
51949;SDS011;37974;53.218;6.640;2023-04-19T08:31:48;11.82;;;1.77;;
51949;SDS011;37974;53.218;6.640;2023-04-19T08:34:14;6.78;;;1.50;;
51949;SDS011;37974;53.218;6.640;2023-04-19T08:36:40;5.15;;;1.60;;
51949;SDS011;37974;53.218;6.640;2023-04-19T08:39:05;2.90;;;1.05;;
51949;SDS011;37974;53.218;6.640;2023-04-19T08:41:31;9.80;;;1.50;;
51949;SDS011;37974;53.218;6.640;2023-04-19T08:43:57;4.10;;;1.60;;
51949;SDS011;37974;53.218;6.640;2023-04-19T08:46:23;3.95;;;1.48;;
51949;SDS011;37974;53.218;6.640;2023-04-19T08:48:50;3.40;;;1.55;;
51949;SDS011;37974;53.218;6.640;2023-04-19T08:51:17;5.47;;;1.50;;
51949;SDS011;37974;53.218;6.640;2023-04-19T08:53:44;4.57;;;1.50;;
51949;SDS011;37974;53.218;6.640;2023-04-19T08:56:12;24.55;;;2.00;;
51949;SDS011;37974;53.218;6.640;2023-04-19T08:58:38;6.30;;;1.40;;
51949;SDS011;37974;53.218;6.640;2023-04-19T09:01:06;13.38;;;2.08;;
51949;SDS011;37974;53.218;6.640;2023-04-19T09:03:33;3.45;;;1.20;;
51949;SDS011;37974;53.218;6.640;2023-04-19T09:06:00;20.60;;;2.40;;
51949;SDS011;37974;53.218;6.640;2023-04-19T09:08:26;14.52;;;1.95;;
51949;SDS011;37974;53.218;6.640;2023-04-19T09:10:54;18.30;;;2.65;;
51949;SDS011;37974;53.218;6.640;2023-04-19T09:13:25;8.40;;;1.50;;
51949;SDS011;37974;53.218;6.640;2023-04-19T09:15:51;3.67;;;1.27;;
51949;SDS011;37974;53.218;6.640;2023-04-19T09:18:17;6.93;;;2.08;;
51949;SDS011;37974;53.218;6.640;2023-04-19T09:20:43;7.88;;;1.58;;
51949;SDS011;37974;53.218;6.640;2023-04-19T09:23:11;6.50;;;1.17;;
51949;SDS011;37974;53.218;6.640;2023-04-19T09:25:39;3.45;;;1.27;;
51949;SDS011;37974;53.218;6.640;2023-04-19T09:28:15;2.97;;;1.30;;
51949;SDS011;37974;53.218;6.640;2023-04-19T09:30:41;11.23;;;1.83;;
51949;SDS011;37974;53.218;6.640;2023-04-19T09:33:07;6.85;;;2.08;;
51949;SDS011;37974;53.218;6.640;2023-04-19T09:35:39;6.10;;;1.58;;
51949;SDS011;37974;53.218;6.640;2023-04-19T09:38:06;10.20;;;1.70;;
51949;SDS011;37974;53.218;6.640;2023-04-19T09:40:32;9.88;;;1.55;;
51949;SDS011;37974;53.218;6.640;2023-04-19T09:42:58;15.30;;;4.60;;
51949;SDS011;37974;53.218;6.640;2023-04-19T09:45:24;7.25;;;1.35;;
51949;SDS011;37974;53.218;6.640;2023-04-19T09:48:00;4.10;;;1.63;;
51949;SDS011;37974;53.218;6.640;2023-04-19T09:50:27;2.47;;;1.13;;
51949;SDS011;37974;53.218;6.640;2023-04-19T09:52:53;8.45;;;1.50;;
51949;SDS011;37974;53.218;6.640;2023-04-19T09:55:20;3.75;;;1.20;;
51949;SDS011;37974;53.218;6.640;2023-04-19T09:57:47;15.85;;;1.50;;
51949;SDS011;37974;53.218;6.640;2023-04-19T10:00:13;5.70;;;1.30;;
51949;SDS011;37974;53.218;6.640;2023-04-19T10:02:40;3.42;;;1.05;;
51949;SDS011;37974;53.218;6.640;2023-04-19T10:05:07;17.88;;;2.38;;
51949;SDS011;37974;53.218;6.640;2023-04-19T10:07:34;16.23;;;1.83;;
51949;SDS011;37974;53.218;6.640;2023-04-19T10:10:01;3.50;;;1.15;;
51949;SDS011;37974;53.218;6.640;2023-04-19T10:12:27;4.75;;;1.20;;
51949;SDS011;37974;53.218;6.640;2023-04-19T10:14:55;5.53;;;1.00;;
51949;SDS011;37974;53.218;6.640;2023-04-19T10:17:21;8.30;;;1.30;;
51949;SDS011;37974;53.218;6.640;2023-04-19T10:19:55;9.90;;;1.25;;
51949;SDS011;37974;53.218;6.640;2023-04-19T10:22:25;15.48;;;1.45;;
51949;SDS011;37974;53.218;6.640;2023-04-19T10:25:11;34.92;;;2.78;;
51949;SDS011;37974;53.218;6.640;2023-04-19T10:27:40;6.30;;;1.25;;
51949;SDS011;37974;53.218;6.640;2023-04-19T10:30:17;3.15;;;0.93;;
51949;SDS011;37974;53.218;6.640;2023-04-19T10:32:45;9.80;;;1.13;;
51949;SDS011;37974;53.218;6.640;2023-04-19T10:35:17;14.90;;;1.70;;
51949;SDS011;37974;53.218;6.640;2023-04-19T10:38:00;10.93;;;2.15;;
51949;SDS011;37974;53.218;6.640;2023-04-19T10:40:57;6.60;;;1.65;;
51949;SDS011;37974;53.218;6.640;2023-04-19T10:43:26;2.78;;;1.00;;
51949;SDS011;37974;53.218;6.640;2023-04-19T10:45:52;1.70;;;0.70;;
51949;SDS011;37974;53.218;6.640;2023-04-19T10:53:41;4.28;;;1.00;;
51949;SDS011;37974;53.218;6.640;2023-04-19T10:56:15;4.35;;;1.00;;
51949;SDS011;37974;53.218;6.640;2023-04-19T11:01:32;4.28;;;0.60;;
51949;SDS011;37974;53.218;6.640;2023-04-19T11:04:01;4.93;;;0.93;;
51949;SDS011;37974;53.218;6.640;2023-04-19T11:06:26;22.88;;;1.70;;
51949;SDS011;37974;53.218;6.640;2023-04-19T11:08:52;3.22;;;0.75;;
51949;SDS011;37974;53.218;6.640;2023-04-19T11:11:19;21.65;;;1.98;;
51949;SDS011;37974;53.218;6.640;2023-04-19T11:13:46;18.58;;;1.20;;
51949;SDS011;37974;53.218;6.640;2023-04-19T11:16:12;6.38;;;1.05;;
51949;SDS011;37974;53.218;6.640;2023-04-19T11:18:38;7.43;;;1.13;;
51949;SDS011;37974;53.218;6.640;2023-04-19T11:21:04;2.17;;;1.00;;
51949;SDS011;37974;53.218;6.640;2023-04-19T11:23:30;4.53;;;1.00;;
51949;SDS011;37974;53.218;6.640;2023-04-19T11:25:55;2.85;;;0.80;;
51949;SDS011;37974;53.218;6.640;2023-04-19T11:28:21;32.95;;;2.33;;
51949;SDS011;37974;53.218;6.640;2023-04-19T11:30:47;5.78;;;1.20;;
51949;SDS011;37974;53.218;6.640;2023-04-19T11:33:13;3.78;;;1.05;;
51949;SDS011;37974;53.218;6.640;2023-04-19T11:35:39;7.90;;;1.15;;
51949;SDS011;37974;53.218;6.640;2023-04-19T11:38:07;5.55;;;1.30;;
51949;SDS011;37974;53.218;6.640;2023-04-19T11:40:36;4.15;;;1.48;;
51949;SDS011;37974;53.218;6.640;2023-04-19T11:43:02;3.63;;;1.20;;
51949;SDS011;37974;53.218;6.640;2023-04-19T11:45:32;5.95;;;1.63;;
51949;SDS011;37974;53.218;6.640;2023-04-19T11:48:00;4.95;;;1.17;;
51949;SDS011;37974;53.218;6.640;2023-04-19T11:50:30;7.93;;;1.45;;
51949;SDS011;37974;53.218;6.640;2023-04-19T11:53:09;10.02;;;1.33;;
51949;SDS011;37974;53.218;6.640;2023-04-19T11:55:42;10.73;;;1.52;;
51949;SDS011;37974;53.218;6.640;2023-04-19T11:58:23;14.75;;;2.15;;
51949;SDS011;37974;53.218;6.640;2023-04-19T12:00:53;6.40;;;1.67;;
51949;SDS011;37974;53.218;6.640;2023-04-19T12:03:21;14.73;;;1.85;;
51949;SDS011;37974;53.218;6.640;2023-04-19T12:05:52;18.00;;;1.90;;
51949;SDS011;37974;53.218;6.640;2023-04-19T12:08:28;23.55;;;2.97;;
51949;SDS011;37974;53.218;6.640;2023-04-19T12:10:56;14.80;;;1.75;;
51949;SDS011;37974;53.218;6.640;2023-04-19T12:13:23;6.53;;;2.05;;
51949;SDS011;37974;53.218;6.640;2023-04-19T12:15:49;26.63;;;2.22;;
51949;SDS011;37974;53.218;6.640;2023-04-19T12:18:15;9.88;;;1.60;;
51949;SDS011;37974;53.218;6.640;2023-04-19T12:20:44;5.43;;;1.80;;
51949;SDS011;37974;53.218;6.640;2023-04-19T12:23:11;6.95;;;2.38;;
51949;SDS011;37974;53.218;6.640;2023-04-19T12:25:38;9.27;;;2.47;;
51949;SDS011;37974;53.218;6.640;2023-04-19T12:28:07;4.95;;;1.95;;
51949;SDS011;37974;53.218;6.640;2023-04-19T12:30:35;5.80;;;1.83;;
51949;SDS011;37974;53.218;6.640;2023-04-19T12:33:01;4.88;;;2.10;;
51949;SDS011;37974;53.218;6.640;2023-04-19T12:35:29;7.07;;;2.33;;
51949;SDS011;37974;53.218;6.640;2023-04-19T12:37:55;5.60;;;1.75;;
51949;SDS011;37974;53.218;6.640;2023-04-19T12:40:23;5.68;;;1.92;;
51949;SDS011;37974;53.218;6.640;2023-04-19T12:42:50;6.28;;;1.90;;
51949;SDS011;37974;53.218;6.640;2023-04-19T12:45:16;5.72;;;1.90;;
51949;SDS011;37974;53.218;6.640;2023-04-19T12:47:43;8.23;;;2.00;;
51949;SDS011;37974;53.218;6.640;2023-04-19T12:50:11;4.95;;;2.10;;
51949;SDS011;37974;53.218;6.640;2023-04-19T12:52:37;6.78;;;2.10;;
51949;SDS011;37974;53.218;6.640;2023-04-19T12:55:03;4.80;;;2.05;;
51949;SDS011;37974;53.218;6.640;2023-04-19T12:57:29;5.50;;;2.00;;
51949;SDS011;37974;53.218;6.640;2023-04-19T12:59:55;6.70;;;2.13;;
51949;SDS011;37974;53.218;6.640;2023-04-19T13:02:21;9.43;;;3.10;;
51949;SDS011;37974;53.218;6.640;2023-04-19T13:04:46;11.93;;;2.88;;
51949;SDS011;37974;53.218;6.640;2023-04-19T13:07:12;14.98;;;2.97;;
51949;SDS011;37974;53.218;6.640;2023-04-19T13:09:38;7.40;;;2.70;;
51949;SDS011;37974;53.218;6.640;2023-04-19T13:12:05;10.93;;;3.00;;
51949;SDS011;37974;53.218;6.640;2023-04-19T13:14:31;10.23;;;2.97;;
51949;SDS011;37974;53.218;6.640;2023-04-19T13:16:56;11.45;;;3.13;;
51949;SDS011;37974;53.218;6.640;2023-04-19T13:19:22;13.63;;;3.17;;
51949;SDS011;37974;53.218;6.640;2023-04-19T13:21:48;7.45;;;3.13;;
51949;SDS011;37974;53.218;6.640;2023-04-19T13:24:14;10.43;;;3.70;;
51949;SDS011;37974;53.218;6.640;2023-04-19T13:26:40;7.07;;;3.30;;
51949;SDS011;37974;53.218;6.640;2023-04-19T13:29:05;9.25;;;3.17;;
51949;SDS011;37974;53.218;6.640;2023-04-19T13:31:32;9.63;;;3.15;;
51949;SDS011;37974;53.218;6.640;2023-04-19T13:34:00;11.75;;;3.10;;
51949;SDS011;37974;53.218;6.640;2023-04-19T13:36:26;8.10;;;3.05;;
51949;SDS011;37974;53.218;6.640;2023-04-19T13:38:52;11.50;;;3.10;;
51949;SDS011;37974;53.218;6.640;2023-04-19T13:41:18;6.13;;;3.30;;
51949;SDS011;37974;53.218;6.640;2023-04-19T13:43:44;5.85;;;3.20;;
51949;SDS011;37974;53.218;6.640;2023-04-19T13:46:11;9.25;;;3.60;;
51949;SDS011;37974;53.218;6.640;2023-04-19T13:48:37;10.57;;;3.63;;
51949;SDS011;37974;53.218;6.640;2023-04-19T13:51:02;11.65;;;3.22;;
51949;SDS011;37974;53.218;6.640;2023-04-19T13:53:28;7.35;;;2.92;;
51949;SDS011;37974;53.218;6.640;2023-04-19T13:55:54;8.65;;;3.60;;
51949;SDS011;37974;53.218;6.640;2023-04-19T13:58:21;10.35;;;3.65;;
51949;SDS011;37974;53.218;6.640;2023-04-19T14:00:48;10.25;;;3.50;;
51949;SDS011;37974;53.218;6.640;2023-04-19T14:03:15;6.97;;;3.00;;
51949;SDS011;37974;53.218;6.640;2023-04-19T14:05:41;11.80;;;3.50;;
51949;SDS011;37974;53.218;6.640;2023-04-19T14:08:07;9.68;;;3.88;;
51949;SDS011;37974;53.218;6.640;2023-04-19T14:10:33;7.57;;;3.33;;
51949;SDS011;37974;53.218;6.640;2023-04-19T14:12:59;8.98;;;4.05;;
51949;SDS011;37974;53.218;6.640;2023-04-19T14:15:25;7.68;;;4.22;;
51949;SDS011;37974;53.218;6.640;2023-04-19T14:17:51;7.47;;;3.60;;
51949;SDS011;37974;53.218;6.640;2023-04-19T14:20:17;15.07;;;3.78;;
51949;SDS011;37974;53.218;6.640;2023-04-19T14:22:42;9.63;;;3.92;;
51949;SDS011;37974;53.218;6.640;2023-04-19T14:25:09;8.00;;;3.95;;
51949;SDS011;37974;53.218;6.640;2023-04-19T14:27:36;12.63;;;3.85;;
51949;SDS011;37974;53.218;6.640;2023-04-19T14:30:03;10.50;;;3.30;;
51949;SDS011;37974;53.218;6.640;2023-04-19T14:32:30;8.95;;;3.65;;
51949;SDS011;37974;53.218;6.640;2023-04-19T14:34:56;10.55;;;3.35;;
51949;SDS011;37974;53.218;6.640;2023-04-19T14:37:22;13.27;;;3.63;;
51949;SDS011;37974;53.218;6.640;2023-04-19T14:39:54;11.10;;;3.28;;
51949;SDS011;37974;53.218;6.640;2023-04-19T14:42:20;10.82;;;3.22;;
51949;SDS011;37974;53.218;6.640;2023-04-19T14:44:45;5.75;;;2.60;;